Time;durP1;ratioP1;P1;durP2;ratioP2;P2;SDS_P1;SDS_P2;PMS_P1;PMS_P2;Temp;Humidity;BMP_temperature;BMP_pressure;BME280_temperature;BME280_humidity;BME280_pressure;Samples;Min_cycle;Max_cycle;Signal;HPM_P1;HPM_P2
2022/01/11 00:00:21;;;;;;;21.95;16.50;;;1.30;99.90;;;;;;5077808;28;20120;-67
2022/01/11 00:02:48;;;;;;;24.20;16.70;;;1.30;99.90;;;;;;5082239;28;20028;-67
2022/01/11 00:07:59;;;;;;;23.92;16.08;;;1.30;99.90;;;;;;5077410;28;20040;-67
2022/01/11 00:10:30;;;;;;;21.10;15.73;;;1.30;99.90;;;;;;5078287;28;20032;-66
2022/01/11 00:12:57;;;;;;;23.52;16.42;;;1.30;99.90;;;;;;5081413;28;20517;-67
2022/01/11 00:15:23;;;;;;;23.05;15.75;;;1.30;99.90;;;;;;5076516;28;20069;-67
2022/01/11 00:17:49;;;;;;;24.20;16.23;;;1.30;99.90;;;;;;5083454;28;20035;-67
2022/01/11 00:20:17;;;;;;;22.95;14.90;;;1.30;99.90;;;;;;5077219;28;20500;-67
2022/01/11 00:25:31;;;;;;;21.40;15.65;;;1.30;99.90;;;;;;5080521;28;20405;-67
2022/01/11 00:27:58;;;;;;;25.52;16.38;;;1.40;99.90;;;;;;5079881;28;20036;-67
2022/01/11 00:30:29;;;;;;;23.83;15.73;;;1.30;99.90;;;;;;5080640;28;20032;-67
2022/01/11 00:32:57;;;;;;;22.63;16.50;;;1.30;99.90;;;;;;5068902;28;20089;-67
2022/01/11 00:35:28;;;;;;;21.50;14.23;;;1.30;99.90;;;;;;5077260;28;20433;-67
2022/01/11 00:37:55;;;;;;;27.67;15.90;;;1.30;99.90;;;;;;5083337;28;20073;-67
2022/01/11 00:40:22;;;;;;;22.30;14.95;;;1.30;99.90;;;;;;5076155;28;20040;-67
2022/01/11 00:42:48;;;;;;;24.65;17.38;;;1.30;99.90;;;;;;5081529;28;20121;-67
2022/01/11 00:45:14;;;;;;;21.02;16.55;;;1.30;99.90;;;;;;5079292;28;20092;-67
2022/01/11 00:47:41;;;;;;;23.15;14.95;;;1.30;99.90;;;;;;5079727;28;20024;-67
2022/01/11 00:50:08;;;;;;;22.50;15.30;;;1.30;99.90;;;;;;5082445;28;20067;-67
2022/01/11 00:52:34;;;;;;;20.40;15.63;;;1.30;99.90;;;;;;5035612;28;20470;-67
2022/01/11 00:55:00;;;;;;;25.83;15.30;;;1.30;99.90;;;;;;5080463;28;20108;-67
2022/01/11 00:57:26;;;;;;;21.30;14.70;;;1.30;99.90;;;;;;5080397;28;20467;-67
2022/01/11 00:59:53;;;;;;;21.58;16.27;;;1.30;99.90;;;;;;5077556;28;20033;-67
2022/01/11 01:02:19;;;;;;;20.30;14.57;;;1.30;99.90;;;;;;5081593;28;20512;-67
2022/01/11 01:04:45;;;;;;;17.67;13.65;;;1.30;99.90;;;;;;5075988;28;20514;-67
2022/01/11 01:07:11;;;;;;;18.92;13.73;;;1.30;99.90;;;;;;5079698;28;20032;-67
2022/01/11 01:09:52;;;;;;;20.27;13.57;;;1.30;99.90;;;;;;5082187;28;20040;-67
2022/01/11 01:12:18;;;;;;;21.33;14.15;;;1.30;99.90;;;;;;5076698;28;20059;-67
2022/01/11 01:14:44;;;;;;;21.77;13.85;;;1.20;99.90;;;;;;5079613;28;20090;-67
2022/01/11 01:17:09;;;;;;;17.75;13.07;;;1.30;99.90;;;;;;5078720;28;20038;-67
2022/01/11 01:19:35;;;;;;;19.02;13.80;;;1.20;99.90;;;;;;5078307;28;20093;-67
2022/01/11 01:22:01;;;;;;;20.77;14.90;;;1.30;99.90;;;;;;5080493;28;20413;-67
2022/01/11 01:24:27;;;;;;;23.73;13.98;;;1.30;99.90;;;;;;5076772;28;20047;-67
2022/01/11 01:26:53;;;;;;;17.88;13.23;;;1.30;99.90;;;;;;5080699;28;20783;-67
2022/01/11 01:29:19;;;;;;;26.42;15.00;;;1.30;99.90;;;;;;5079808;28;20587;-67
2022/01/11 01:31:45;;;;;;;20.90;14.40;;;1.30;99.90;;;;;;5078069;28;20028;-67
2022/01/11 01:34:11;;;;;;;21.52;13.60;;;1.30;99.90;;;;;;5082477;28;20285;-67
2022/01/11 01:36:37;;;;;;;22.70;13.52;;;1.30;99.90;;;;;;5075994;28;20045;-67
2022/01/11 01:39:03;;;;;;;29.55;14.52;;;1.30;99.90;;;;;;5080976;28;20040;-67
2022/01/11 01:41:29;;;;;;;23.17;15.38;;;1.40;99.90;;;;;;5077326;28;20454;-66
2022/01/11 01:43:59;;;;;;;23.10;14.27;;;1.30;99.90;;;;;;5078410;28;20044;-67
2022/01/11 01:46:25;;;;;;;26.05;15.00;;;1.40;99.90;;;;;;5081031;28;20395;-67
2022/01/11 01:48:54;;;;;;;23.55;16.30;;;1.40;99.90;;;;;;5076895;28;20032;-66
2022/01/11 01:51:20;;;;;;;23.30;14.43;;;1.40;99.90;;;;;;5081695;28;20039;-67
2022/01/11 01:53:49;;;;;;;22.52;13.05;;;1.40;99.90;;;;;;5080080;28;20638;-67
2022/01/11 01:56:18;;;;;;;23.25;13.52;;;1.40;99.90;;;;;;5078053;28;20040;-67
2022/01/11 01:58:44;;;;;;;25.30;14.27;;;1.40;99.90;;;;;;5080612;28;20115;-66
2022/01/11 02:01:13;;;;;;;21.55;14.23;;;1.40;99.90;;;;;;5076306;28;20469;-66
2022/01/11 02:03:40;;;;;;;21.58;12.18;;;1.40;99.90;;;;;;5078700;28;20549;-67
2022/01/11 02:06:18;;;;;;;21.23;13.25;;;1.40;99.90;;;;;;5078838;28;20071;-68
2022/01/11 02:08:45;;;;;;;22.15;14.38;;;1.50;99.90;;;;;;5076220;28;20126;-67
2022/01/11 02:11:17;;;;;;;21.27;14.70;;;1.40;99.90;;;;;;5080815;28;20378;-66
2022/01/11 02:13:45;;;;;;;23.50;13.65;;;1.40;99.90;;;;;;5078443;28;20464;-67
2022/01/11 02:16:12;;;;;;;24.98;14.32;;;1.40;99.90;;;;;;5077700;28;20871;-67
2022/01/11 02:18:40;;;;;;;21.88;13.23;;;1.40;99.90;;;;;;5078805;28;20515;-67
2022/01/11 02:21:07;;;;;;;23.52;15.23;;;1.40;99.90;;;;;;5075458;28;20098;-67
2022/01/11 02:23:33;;;;;;;21.13;13.27;;;1.40;99.90;;;;;;5080193;28;20040;-66
2022/01/11 02:25:59;;;;;;;24.25;13.60;;;1.40;99.90;;;;;;5077244;28;20466;-66
2022/01/11 02:28:27;;;;;;;20.88;15.07;;;1.40;99.90;;;;;;5078814;28;20038;-66
2022/01/11 02:30:54;;;;;;;20.20;13.60;;;1.40;99.90;;;;;;5080785;28;20050;-66
2022/01/11 02:33:33;;;;;;;29.80;14.25;;;1.40;99.90;;;;;;5076549;28;20118;-66
2022/01/11 02:36:05;;;;;;;23.70;14.77;;;1.50;99.90;;;;;;5078054;28;20490;-66
2022/01/11 02:38:31;;;;;;;23.60;15.23;;;1.50;99.90;;;;;;5078247;28;20048;-67
2022/01/11 02:40:58;;;;;;;19.85;15.00;;;1.40;99.90;;;;;;5075441;28;21138;-66
2022/01/11 02:43:25;;;;;;;19.52;14.15;;;1.50;99.90;;;;;;5079121;28;20040;-66
2022/01/11 02:45:51;;;;;;;26.80;15.57;;;1.50;99.90;;;;;;5072955;28;20448;-66
2022/01/11 02:48:17;;;;;;;22.40;14.43;;;1.40;99.90;;;;;;5077140;28;20054;-66
2022/01/11 02:50:46;;;;;;;25.25;15.85;;;1.40;99.90;;;;;;5079821;28;20380;-66
2022/01/11 02:53:13;;;;;;;26.00;15.52;;;1.40;99.90;;;;;;5076862;28;20402;-66
2022/01/11 02:55:40;;;;;;;26.15;15.77;;;1.40;99.90;;;;;;5080422;28;20067;-66
2022/01/11 02:58:07;;;;;;;26.90;15.65;;;1.40;99.90;;;;;;5080529;28;20097;-66
2022/01/11 03:00:33;;;;;;;22.23;14.75;;;1.40;99.90;;;;;;5079306;28;20066;-66
2022/01/11 03:03:23;;;;;;;24.33;14.82;;;1.40;99.90;;;;;;5083985;28;20040;-67
2022/01/11 03:05:51;;;;;;;25.92;15.77;;;1.40;99.90;;;;;;5079759;28;20058;-66
2022/01/11 03:08:19;;;;;;;22.88;15.43;;;1.40;99.90;;;;;;5082551;28;20036;-67
2022/01/11 03:10:47;;;;;;;28.35;15.82;;;1.40;99.90;;;;;;5081637;28;20061;-66
2022/01/11 03:13:16;;;;;;;29.95;15.60;;;1.40;99.90;;;;;;5078973;28;20047;-66
2022/01/11 03:15:42;;;;;;;25.63;15.55;;;1.40;99.90;;;;;;5080834;28;20183;-67
2022/01/11 03:18:08;;;;;;;27.05;17.08;;;1.40;99.90;;;;;;5080838;28;20035;-66
2022/01/11 03:20:36;;;;;;;25.45;15.25;;;1.40;99.90;;;;;;5078572;28;20550;-66
2022/01/11 03:23:03;;;;;;;28.08;16.45;;;1.40;99.90;;;;;;5082362;28;20051;-66
2022/01/11 03:25:29;;;;;;;26.65;16.27;;;1.40;99.90;;;;;;5077346;28;20488;-66
2022/01/11 03:27:54;;;;;;;25.55;15.43;;;1.40;99.90;;;;;;5080106;28;20032;-66
2022/01/11 03:30:20;;;;;;;22.92;15.65;;;1.30;99.90;;;;;;5079824;28;20563;-67
2022/01/11 03:32:47;;;;;;;25.17;15.63;;;1.40;99.90;;;;;;5082939;28;20044;-67
2022/01/11 03:35:13;;;;;;;28.65;16.35;;;1.30;99.90;;;;;;5080844;28;20044;-66
2022/01/11 03:37:40;;;;;;;32.85;16.77;;;1.30;99.90;;;;;;5079154;28;20043;-67
2022/01/11 03:40:10;;;;;;;27.60;17.58;;;1.30;99.90;;;;;;5080755;28;20408;-66
2022/01/11 03:42:36;;;;;;;25.23;16.95;;;1.30;99.90;;;;;;5082028;28;20460;-66
2022/01/11 03:45:04;;;;;;;26.65;16.55;;;1.40;99.90;;;;;;5079055;28;20039;-67
2022/01/11 03:47:30;;;;;;;26.38;17.05;;;1.40;99.90;;;;;;5067543;28;20044;-66
2022/01/11 03:49:56;;;;;;;31.65;17.38;;;1.40;99.90;;;;;;5077151;28;20036;-67
2022/01/11 03:52:22;;;;;;;26.13;17.42;;;1.40;99.90;;;;;;5083945;28;20446;-66
2022/01/11 03:55:03;;;;;;;29.70;18.33;;;1.40;99.90;;;;;;5080575;28;20425;-66
2022/01/11 03:57:31;;;;;;;28.95;17.63;;;1.40;99.90;;;;;;5078209;28;20040;-66
2022/01/11 04:00:01;;;;;;;31.40;17.20;;;1.40;99.90;;;;;;5082881;28;20055;-66
2022/01/11 04:02:27;;;;;;;30.52;15.57;;;1.40;99.90;;;;;;5079476;28;20032;-66
2022/01/11 04:04:53;;;;;;;27.45;17.52;;;1.50;99.90;;;;;;5062142;28;20289;-66
2022/01/11 04:07:25;;;;;;;37.40;18.00;;;1.50;99.90;;;;;;5082271;28;20101;-66
2022/01/11 04:09:52;;;;;;;30.58;16.85;;;1.50;99.90;;;;;;5078258;28;20032;-66
2022/01/11 04:12:18;;;;;;;29.25;17.80;;;1.50;99.90;;;;;;5049674;28;20585;-66
2022/01/11 04:14:45;;;;;;;34.83;18.67;;;1.50;99.90;;;;;;5079719;28;20051;-67
2022/01/11 04:17:14;;;;;;;31.17;17.25;;;1.50;99.90;;;;;;5079718;28;20047;-67
2022/01/11 04:19:40;;;;;;;26.98;17.17;;;1.50;99.90;;;;;;5082868;28;21021;-66
2022/01/11 04:22:06;;;;;;;32.45;18.95;;;1.50;99.90;;;;;;5078724;28;20112;-66
2022/01/11 04:24:32;;;;;;;33.58;18.35;;;1.50;99.90;;;;;;5082682;28;20126;-67
2022/01/11 04:26:58;;;;;;;27.65;16.45;;;1.50;99.90;;;;;;5079521;28;20101;-66
2022/01/11 04:29:24;;;;;;;30.08;18.58;;;1.50;99.90;;;;;;5078209;28;20182;-66
2022/01/11 04:31:51;;;;;;;36.05;19.55;;;1.60;99.90;;;;;;5081610;28;20410;-67
2022/01/11 04:34:17;;;;;;;31.58;17.80;;;1.50;99.90;;;;;;5079266;28;20544;-67
2022/01/11 04:36:43;;;;;;;29.17;16.98;;;1.50;99.90;;;;;;5079609;28;20040;-67
2022/01/11 04:39:12;;;;;;;32.22;17.98;;;1.60;99.90;;;;;;5080489;28;20115;-66
2022/01/11 04:41:39;;;;;;;32.08;18.10;;;1.60;99.90;;;;;;5079023;28;20028;-66
2022/01/11 04:44:06;;;;;;;34.17;18.58;;;1.50;99.90;;;;;;5081644;28;20115;-67
2022/01/11 04:46:32;;;;;;;29.50;17.60;;;1.50;99.90;;;;;;5078163;28;20472;-67
2022/01/11 04:49:01;;;;;;;32.10;17.77;;;1.50;99.90;;;;;;5081166;28;20423;-67
2022/01/11 04:51:28;;;;;;;34.22;17.85;;;1.50;99.90;;;;;;5079492;28;20036;-66
2022/01/11 04:53:54;;;;;;;35.40;17.92;;;1.50;99.90;;;;;;5080340;28;20044;-67
2022/01/11 04:56:21;;;;;;;32.08;18.25;;;1.50;99.90;;;;;;5082564;28;20678;-66
2022/01/11 04:58:47;;;;;;;31.23;17.05;;;1.50;99.90;;;;;;5077498;28;20086;-67
2022/01/11 05:01:13;;;;;;;33.00;16.55;;;1.50;99.90;;;;;;5080859;28;20046;-66
2022/01/11 05:03:38;;;;;;;36.35;19.35;;;1.50;99.90;;;;;;5063636;28;20055;-67
2022/01/11 05:06:04;;;;;;;32.83;18.95;;;1.50;99.90;;;;;;5077255;28;20050;-67
2022/01/11 05:08:31;;;;;;;33.63;18.30;;;1.50;99.90;;;;;;5083469;28;20036;-67
2022/01/11 05:10:57;;;;;;;32.45;18.63;;;1.50;99.90;;;;;;5076006;28;20055;-66
2022/01/11 05:13:23;;;;;;;30.15;18.05;;;1.50;99.90;;;;;;5082346;28;20036;-66
2022/01/11 05:15:49;;;;;;;40.47;19.08;;;1.40;99.90;;;;;;5080135;28;20040;-67
2022/01/11 05:18:15;;;;;;;31.13;17.75;;;1.50;99.90;;;;;;5077682;28;20047;-67
2022/01/11 05:20:42;;;;;;;29.15;17.20;;;1.40;99.90;;;;;;5082466;28;20048;-66
2022/01/11 05:23:09;;;;;;;26.27;18.48;;;1.40;99.90;;;;;;5077816;28;20070;-67
2022/01/11 05:25:36;;;;;;;30.85;19.35;;;1.40;99.90;;;;;;5079495;28;20416;-66
2022/01/11 05:28:01;;;;;;;34.83;18.45;;;1.40;99.90;;;;;;5081247;28;20119;-67
2022/01/11 05:30:29;;;;;;;30.52;18.33;;;1.40;99.90;;;;;;5074121;28;20131;-67
2022/01/11 05:32:55;;;;;;;32.95;18.80;;;1.40;99.90;;;;;;5079835;28;20074;-67
2022/01/11 05:35:23;;;;;;;29.67;17.17;;;1.30;99.90;;;;;;5080015;28;20107;-67
2022/01/11 05:37:50;;;;;;;32.15;18.52;;;1.30;99.90;;;;;;5079255;28;20168;-66
2022/01/11 05:40:18;;;;;;;41.47;18.45;;;1.30;99.90;;;;;;5081143;28;20036;-66
2022/01/11 05:42:49;;;;;;;29.27;16.90;;;1.40;99.90;;;;;;5074017;28;20042;-66
2022/01/11 05:45:16;;;;;;;28.90;18.48;;;1.30;99.90;;;;;;5080123;28;20044;-67
2022/01/11 05:47:42;;;;;;;31.98;17.48;;;1.30;99.90;;;;;;5076877;28;20048;-67
2022/01/11 05:50:09;;;;;;;33.50;18.13;;;1.30;99.90;;;;;;5076074;28;20058;-68
2022/01/11 05:52:38;;;;;;;37.47;20.10;;;1.30;99.90;;;;;;5079954;28;20040;-67
2022/01/11 05:55:06;;;;;;;28.40;17.95;;;1.30;99.90;;;;;;5077367;28;20040;-66
2022/01/11 05:57:32;;;;;;;31.75;18.67;;;1.30;99.90;;;;;;5078306;28;20122;-66
2022/01/11 05:59:57;;;;;;;32.00;18.80;;;1.30;99.90;;;;;;5079037;28;20960;-67
2022/01/11 06:02:23;;;;;;;31.65;17.65;;;1.30;99.90;;;;;;5076788;28;20119;-66
2022/01/11 06:04:49;;;;;;;28.65;17.33;;;1.30;99.90;;;;;;5081060;28;20032;-66
2022/01/11 06:07:15;;;;;;;25.42;16.33;;;1.30;99.90;;;;;;5076408;28;20040;-66
2022/01/11 06:09:41;;;;;;;30.27;17.60;;;1.20;99.90;;;;;;5079385;28;20481;-66
2022/01/11 06:12:07;;;;;;;34.13;19.55;;;1.20;99.90;;;;;;5076414;28;20064;-67
2022/01/11 06:14:33;;;;;;;30.58;18.67;;;1.20;99.90;;;;;;5078553;28;20405;-66
2022/01/11 06:16:59;;;;;;;37.17;19.13;;;1.20;99.90;;;;;;5078335;28;20036;-66
2022/01/11 06:19:26;;;;;;;32.65;19.25;;;1.20;99.90;;;;;;5055718;28;20062;-67
2022/01/11 06:21:52;;;;;;;34.95;18.75;;;1.20;99.90;;;;;;5056157;28;20040;-66
2022/01/11 06:24:18;;;;;;;36.72;19.40;;;1.20;99.90;;;;;;5064060;28;20040;-66
2022/01/11 06:26:44;;;;;;;33.90;17.38;;;1.10;99.90;;;;;;5059114;28;20058;-66
2022/01/11 06:29:09;;;;;;;34.38;18.38;;;1.10;99.90;;;;;;5064642;28;20086;-67
2022/01/11 06:31:35;;;;;;;36.13;18.02;;;1.10;99.90;;;;;;5058133;28;20033;-67
2022/01/11 06:34:02;;;;;;;30.90;17.70;;;1.10;99.90;;;;;;5054002;28;20037;-67
2022/01/11 06:36:28;;;;;;;34.13;18.17;;;1.10;99.90;;;;;;5057042;28;20032;-66
2022/01/11 06:38:55;;;;;;;34.13;17.63;;;1.10;99.90;;;;;;5062227;28;20044;-66
2022/01/11 06:41:20;;;;;;;31.98;18.10;;;1.10;99.90;;;;;;5057606;28;20498;-66
2022/01/11 06:43:46;;;;;;;25.05;16.70;;;1.10;99.90;;;;;;5065344;28;20047;-66
2022/01/11 06:46:12;;;;;;;28.38;17.63;;;1.00;99.90;;;;;;5060326;28;20119;-66
2022/01/11 06:48:38;;;;;;;31.65;19.45;;;1.00;99.90;;;;;;5053164;28;20060;-66
2022/01/11 06:51:04;;;;;;;29.15;17.58;;;1.00;99.90;;;;;;5062875;28;20082;-67
2022/01/11 06:53:31;;;;;;;33.92;18.00;;;1.00;99.90;;;;;;5058622;28;20459;-66
2022/01/11 06:55:57;;;;;;;29.00;16.75;;;1.00;99.90;;;;;;5054709;28;20270;-66
2022/01/11 06:58:23;;;;;;;30.08;17.65;;;1.00;99.90;;;;;;5064319;28;20120;-66
2022/01/11 07:00:49;;;;;;;29.88;17.55;;;1.00;99.90;;;;;;5057088;28;20098;-66
2022/01/11 07:03:15;;;;;;;27.40;16.05;;;1.00;99.90;;;;;;5064787;28;20457;-66
2022/01/11 07:05:42;;;;;;;30.15;18.33;;;1.00;99.90;;;;;;5057428;28;20062;-66
2022/01/11 07:08:09;;;;;;;30.58;17.88;;;0.90;99.90;;;;;;5054795;28;20039;-66
2022/01/11 07:10:34;;;;;;;27.27;15.40;;;0.90;99.90;;;;;;5058319;28;20399;-66
2022/01/11 07:13:02;;;;;;;29.50;17.45;;;0.90;99.90;;;;;;5063061;28;20127;-66
2022/01/11 07:15:28;;;;;;;29.67;18.60;;;0.90;99.90;;;;;;5056207;28;20052;-66
2022/01/11 07:17:54;;;;;;;31.30;17.42;;;0.90;99.90;;;;;;5066797;28;20089;-67
2022/01/11 07:20:21;;;;;;;28.45;16.50;;;0.80;99.90;;;;;;5057675;28;20040;-67
2022/01/11 07:22:48;;;;;;;35.50;18.00;;;0.80;99.90;;;;;;5052957;28;20162;-66
2022/01/11 07:25:14;;;;;;;28.65;17.13;;;0.80;99.90;;;;;;5065129;28;20439;-66
2022/01/11 07:27:40;;;;;;;30.02;18.67;;;0.80;99.90;;;;;;5055792;28;20036;-66
2022/01/11 07:30:07;;;;;;;31.13;16.45;;;0.70;99.90;;;;;;5052523;28;20087;-66
2022/01/11 07:32:35;;;;;;;29.45;16.77;;;0.80;99.90;;;;;;5051638;28;20448;-67
2022/01/11 07:35:02;;;;;;;28.90;16.95;;;0.70;99.90;;;;;;5057929;28;20065;-66
2022/01/11 07:37:28;;;;;;;36.13;18.38;;;0.80;99.90;;;;;;5054701;28;20083;-67
2022/01/11 07:39:54;;;;;;;30.98;17.58;;;0.80;99.90;;;;;;5060270;28;20072;-66
2022/01/11 07:42:20;;;;;;;28.98;17.13;;;0.70;99.90;;;;;;5058144;28;20032;-66
2022/01/11 07:44:48;;;;;;;28.50;17.70;;;0.70;99.90;;;;;;5064090;28;20041;-66
2022/01/11 07:47:14;;;;;;;28.23;17.10;;;0.80;99.90;;;;;;5064169;28;20131;-66
2022/01/11 07:49:39;;;;;;;33.70;15.57;;;0.70;99.90;;;;;;5060110;28;20522;-66
2022/01/11 07:52:05;;;;;;;25.67;15.27;;;0.70;99.90;;;;;;5061773;28;20032;-66
2022/01/11 07:54:31;;;;;;;27.35;17.38;;;0.70;99.90;;;;;;5065667;28;20033;-66
2022/01/11 07:56:57;;;;;;;25.83;16.70;;;0.70;99.90;;;;;;5059473;28;20581;-66
2022/01/11 07:59:23;;;;;;;27.25;15.48;;;0.70;99.90;;;;;;5063597;28;20040;-66
2022/01/11 08:01:49;;;;;;;29.92;17.38;;;0.70;99.90;;;;;;5058274;28;20136;-67
2022/01/11 08:04:15;;;;;;;25.65;17.60;;;0.70;99.90;;;;;;5065346;28;20039;-66
2022/01/11 08:06:40;;;;;;;34.97;18.27;;;0.70;99.90;;;;;;5043350;28;20037;-66
2022/01/11 08:09:07;;;;;;;31.40;17.58;;;0.60;99.90;;;;;;5068331;28;20084;-66
2022/01/11 08:11:34;;;;;;;31.63;16.85;;;0.60;99.90;;;;;;5068186;28;20057;-66
2022/01/11 08:14:00;;;;;;;27.25;16.77;;;0.60;99.90;;;;;;5060580;28;20045;-66
2022/01/11 08:16:26;;;;;;;29.33;15.57;;;0.60;99.90;;;;;;5057955;28;20440;-66
2022/01/11 08:18:51;;;;;;;30.85;16.92;;;0.60;99.90;;;;;;5055937;28;20440;-66
2022/01/11 08:21:17;;;;;;;32.50;17.15;;;0.60;99.90;;;;;;5042729;28;20045;-66
2022/01/11 08:23:43;;;;;;;34.17;17.98;;;0.60;99.90;;;;;;5057802;28;20133;-66
2022/01/11 08:26:09;;;;;;;32.13;18.52;;;0.50;99.90;;;;;;5060316;28;20106;-66
2022/01/11 08:28:35;;;;;;;25.85;15.70;;;0.60;99.90;;;;;;5063234;28;20434;-66
2022/01/11 08:31:00;;;;;;;33.33;17.25;;;0.60;99.90;;;;;;5056619;28;20108;-66
2022/01/11 08:33:26;;;;;;;36.08;18.40;;;0.50;99.90;;;;;;5061481;28;20072;-66
2022/01/11 08:35:53;;;;;;;33.00;17.58;;;0.50;99.90;;;;;;5058776;28;20032;-66
2022/01/11 08:38:18;;;;;;;36.65;19.77;;;0.50;99.90;;;;;;5061792;28;20043;-66
2022/01/11 08:40:45;;;;;;;30.35;17.20;;;0.50;99.90;;;;;;5061526;28;20036;-66
2022/01/11 08:43:10;;;;;;;35.08;16.75;;;0.50;99.90;;;;;;5062692;28;20508;-66
2022/01/11 08:45:37;;;;;;;35.60;18.92;;;0.50;99.90;;;;;;5058288;28;20036;-66
2022/01/11 08:48:04;;;;;;;29.17;17.80;;;0.50;99.90;;;;;;5065722;28;20258;-66
2022/01/11 08:50:30;;;;;;;35.25;18.85;;;0.50;99.90;;;;;;5059310;28;20039;-66
2022/01/11 08:52:57;;;;;;;28.88;17.63;;;0.50;99.90;;;;;;5059238;28;20037;-66
2022/01/11 08:55:24;;;;;;;36.63;19.90;;;0.50;99.90;;;;;;5057792;28;20048;-66
2022/01/11 08:57:50;;;;;;;29.02;17.60;;;0.50;99.90;;;;;;5061698;28;20048;-66
2022/01/11 09:00:18;;;;;;;29.10;17.90;;;0.50;99.90;;;;;;5061480;28;20500;-66
2022/01/11 09:02:45;;;;;;;33.85;18.83;;;0.50;99.90;;;;;;5061580;28;20049;-66
2022/01/11 09:05:11;;;;;;;31.30;16.95;;;0.50;99.90;;;;;;5060961;28;20099;-66
2022/01/11 09:07:37;;;;;;;29.67;18.15;;;0.50;99.90;;;;;;5045918;28;20049;-66
2022/01/11 09:10:03;;;;;;;32.80;20.52;;;0.50;99.90;;;;;;5042518;28;20048;-66
2022/01/11 09:12:32;;;;;;;28.40;17.58;;;0.50;99.90;;;;;;5055971;28;20611;-66
2022/01/11 09:14:58;;;;;;;32.05;18.45;;;0.50;99.90;;;;;;5058394;28;20102;-66
2022/01/11 09:17:24;;;;;;;31.98;19.55;;;0.50;99.90;;;;;;5065331;28;20267;-66
2022/01/11 09:19:50;;;;;;;36.20;19.63;;;0.50;99.90;;;;;;5056968;28;20041;-66
2022/01/11 09:22:16;;;;;;;29.13;17.23;;;0.50;99.90;;;;;;5060567;28;20397;-66
2022/01/11 09:24:42;;;;;;;33.58;19.42;;;0.50;99.90;;;;;;5060137;28;20048;-66
2022/01/11 09:27:08;;;;;;;28.70;18.17;;;0.50;99.90;;;;;;5057723;28;20052;-66
2022/01/11 09:29:37;;;;;;;34.55;19.95;;;0.40;99.90;;;;;;5052080;28;20033;-66
2022/01/11 09:32:04;;;;;;;34.03;20.67;;;0.50;99.90;;;;;;5057710;28;20036;-66
2022/01/11 09:34:29;;;;;;;42.40;21.05;;;0.50;99.90;;;;;;5056848;28;20035;-66
2022/01/11 09:36:56;;;;;;;33.50;19.27;;;0.50;99.90;;;;;;5057324;28;24346;-66
2022/01/11 09:39:22;;;;;;;35.83;20.13;;;0.50;99.90;;;;;;5059597;28;20049;-66
2022/01/11 09:41:48;;;;;;;35.30;19.35;;;0.50;99.90;;;;;;5067906;28;20095;-66
2022/01/11 09:44:14;;;;;;;36.88;22.70;;;0.50;99.90;;;;;;5061859;28;20514;-66
2022/01/11 09:46:40;;;;;;;38.17;21.52;;;0.50;99.90;;;;;;5059196;28;20033;-66
2022/01/11 09:49:06;;;;;;;40.90;22.25;;;0.50;99.90;;;;;;5054294;28;20091;-66
2022/01/11 09:51:34;;;;;;;37.83;22.27;;;0.60;99.90;;;;;;5064929;28;20089;-66
2022/01/11 09:54:01;;;;;;;38.28;22.30;;;0.50;99.90;;;;;;5054186;28;20037;-66
2022/01/11 09:56:27;;;;;;;38.80;23.27;;;0.60;99.90;;;;;;5061436;28;20039;-66
2022/01/11 09:58:52;;;;;;;35.95;19.98;;;0.60;99.90;;;;;;5060206;28;20041;-66
2022/01/11 10:01:18;;;;;;;37.00;22.92;;;0.60;99.90;;;;;;5058735;28;20041;-66
2022/01/11 10:04:04;;;;;;;44.58;24.20;;;0.60;99.90;;;;;;5058489;28;20051;-66
2022/01/11 10:06:30;;;;;;;38.03;22.75;;;0.60;99.90;;;;;;5057525;28;20047;-67
2022/01/11 10:09:12;;;;;;;41.78;24.13;;;0.70;99.90;;;;;;5058611;28;20036;-66
2022/01/11 10:11:41;;;;;;;46.42;23.48;;;0.70;99.90;;;;;;5063037;28;20106;-66
2022/01/11 10:14:32;;;;;;;40.50;21.50;;;0.70;99.90;;;;;;5060687;28;20053;-66
2022/01/11 10:17:19;;;;;;;43.85;22.13;;;0.80;99.90;;;;;;5059222;28;20040;-66
2022/01/11 10:19:48;;;;;;;43.25;22.35;;;0.80;99.90;;;;;;5054915;28;20048;-66
2022/01/11 10:22:21;;;;;;;44.17;21.90;;;0.80;99.90;;;;;;5056937;28;20441;-66
2022/01/11 10:24:50;;;;;;;34.78;22.08;;;0.80;99.90;;;;;;5057185;28;20519;-66
2022/01/11 10:27:19;;;;;;;38.78;21.23;;;0.90;99.90;;;;;;5052342;28;20116;-66
2022/01/11 10:29:50;;;;;;;39.63;23.08;;;0.90;99.90;;;;;;5055086;28;20119;-66
2022/01/11 10:32:33;;;;;;;29.88;21.33;;;1.00;99.90;;;;;;5057950;28;20518;-66
2022/01/11 10:35:12;;;;;;;48.47;23.85;;;1.00;99.90;;;;;;5056083;28;20037;-66
2022/01/11 10:37:48;;;;;;;42.08;22.50;;;1.00;99.90;;;;;;5061048;28;20060;-66
2022/01/11 10:40:20;;;;;;;37.58;21.35;;;1.10;99.90;;;;;;5066329;28;20052;-66
2022/01/11 10:42:49;;;;;;;35.65;21.08;;;1.10;99.90;;;;;;5056019;28;20048;-66
2022/01/11 10:45:21;;;;;;;41.65;21.13;;;1.10;99.90;;;;;;5054992;28;20107;-66
2022/01/11 10:47:52;;;;;;;33.40;20.70;;;1.20;99.90;;;;;;5057742;28;20041;-66
2022/01/11 10:50:22;;;;;;;42.60;23.42;;;1.20;99.90;;;;;;5057319;28;20045;-67
2022/01/11 10:52:48;;;;;;;40.40;22.80;;;1.20;99.90;;;;;;5061472;28;20510;-66
2022/01/11 10:55:17;;;;;;;43.22;22.58;;;1.20;99.90;;;;;;5055050;28;20036;-66
2022/01/11 10:57:49;;;;;;;38.75;20.30;;;1.20;99.90;;;;;;5052925;28;20052;-66
2022/01/11 11:00:24;;;;;;;40.30;21.38;;;1.20;99.90;;;;;;5054053;28;20063;-66
2022/01/11 11:02:56;;;;;;;32.67;21.77;;;1.30;99.90;;;;;;5052750;28;20048;-66
2022/01/11 11:05:35;;;;;;;37.67;20.25;;;1.30;99.90;;;;;;5061351;28;20033;-66
2022/01/11 11:08:07;;;;;;;32.05;21.00;;;1.30;99.90;;;;;;5064000;28;20033;-66
2022/01/11 11:10:39;;;;;;;41.55;21.35;;;1.30;99.90;;;;;;5067567;28;20047;-66
2022/01/11 11:13:07;;;;;;;37.72;21.38;;;1.40;99.90;;;;;;5052732;28;20468;-66
2022/01/11 11:15:39;;;;;;;35.70;20.90;;;1.40;99.90;;;;;;5058104;28;20568;-66
2022/01/11 11:18:19;;;;;;;33.60;19.65;;;1.40;99.90;;;;;;5068086;28;20417;-66
2022/01/11 11:20:45;;;;;;;35.60;20.58;;;1.50;99.90;;;;;;5057204;28;20037;-67
2022/01/11 11:23:12;;;;;;;37.50;19.60;;;1.40;99.90;;;;;;5063509;28;20047;-66
2022/01/11 11:25:40;;;;;;;33.17;19.67;;;1.50;99.90;;;;;;5064664;28;20067;-67
2022/01/11 11:28:06;;;;;;;40.13;20.67;;;1.50;99.90;;;;;;5047398;28;20119;-67
2022/01/11 11:30:32;;;;;;;34.90;20.73;;;1.50;99.90;;;;;;5060292;28;20436;-66
2022/01/11 11:32:58;;;;;;;36.25;19.73;;;1.60;99.90;;;;;;5065522;28;20119;-67
2022/01/11 11:35:24;;;;;;;36.55;20.15;;;1.60;99.90;;;;;;5058102;28;20120;-66
2022/01/11 11:38:01;;;;;;;37.88;20.20;;;1.60;99.90;;;;;;5056882;28;20521;-66
2022/01/11 11:40:30;;;;;;;41.75;21.52;;;1.60;99.90;;;;;;5057452;28;20069;-67
2022/01/11 11:42:59;;;;;;;39.65;21.48;;;1.70;99.90;;;;;;5059958;28;20037;-67
2022/01/11 11:45:36;;;;;;;35.63;20.17;;;1.70;99.90;;;;;;5064269;28;20158;-67
2022/01/11 11:48:09;;;;;;;38.35;21.50;;;1.70;99.90;;;;;;5062979;28;20385;-66
2022/01/11 11:50:51;;;;;;;39.50;19.55;;;1.80;99.90;;;;;;5061460;28;20110;-66
2022/01/11 11:53:29;;;;;;;34.60;19.63;;;1.80;99.90;;;;;;5061432;28;20478;-66
2022/01/11 11:56:15;;;;;;;33.97;19.50;;;1.80;99.90;;;;;;5067955;28;20040;-67
2022/01/11 11:58:43;;;;;;;36.17;19.40;;;1.80;99.90;;;;;;5060861;28;20044;-66
2022/01/11 12:01:41;;;;;;;32.53;17.90;;;1.90;99.90;;;;;;5061253;28;20079;-67
2022/01/11 12:04:15;;;;;;;34.55;19.52;;;1.90;99.90;;;;;;5064266;28;20024;-67
2022/01/11 12:06:43;;;;;;;32.92;19.52;;;1.90;99.90;;;;;;5059552;28;20506;-66
2022/01/11 12:09:12;;;;;;;41.85;19.10;;;1.90;99.90;;;;;;5039805;28;20037;-66
2022/01/11 12:11:49;;;;;;;30.13;18.55;;;2.00;99.90;;;;;;5068672;28;20389;-66
2022/01/11 12:14:30;;;;;;;41.45;22.20;;;2.00;99.90;;;;;;5064040;28;20044;-67
2022/01/11 12:16:57;;;;;;;28.73;17.67;;;2.00;99.90;;;;;;5060034;28;20041;-66
2022/01/11 12:19:41;;;;;;;31.52;17.25;;;2.00;99.90;;;;;;5063621;28;20145;-67
2022/01/11 12:22:07;;;;;;;31.88;16.92;;;2.10;99.90;;;;;;5068102;28;20044;-67
2022/01/11 12:24:41;;;;;;;28.33;17.90;;;2.10;99.90;;;;;;5059171;28;20131;-67
2022/01/11 12:27:10;;;;;;;34.30;18.40;;;2.10;99.90;;;;;;5059342;28;20459;-67
2022/01/11 12:29:50;;;;;;;29.60;16.83;;;2.10;99.90;;;;;;5060251;28;20165;-67
2022/01/11 12:32:18;;;;;;;30.17;17.00;;;2.10;99.90;;;;;;5053907;28;20045;-67
2022/01/11 12:34:50;;;;;;;30.65;17.17;;;2.20;99.90;;;;;;5062746;28;20029;-67
2022/01/11 12:37:38;;;;;;;29.50;16.48;;;2.20;99.90;;;;;;5059659;28;20037;-67
2022/01/11 12:40:14;;;;;;;38.10;16.85;;;2.20;99.90;;;;;;5060297;28;20087;-67
2022/01/11 12:42:55;;;;;;;32.28;16.27;;;2.20;99.90;;;;;;5057025;28;20044;-67
2022/01/11 12:46:00;;;;;;;29.13;17.50;;;2.30;99.90;;;;;;5059508;28;20162;-67